Terminal Aerodrome Forecast
Issued by NWS Wakefield, VA

Home | Current Version | Previous Version | Text Only | Print | Product List | Glossary On
Versions: 1 2 3 4 5 6 7 8 9 10 11 12 13 14 15 16 17 18
000
FTUS41 KAKQ 042322
TAFECG
TAF
KECG 042322Z 0500/0524 03009KT P6SM SCT025
     FM050600 02005KT 5SM BR BKN025
     FM051300 04010G15KT P6SM BKN030
     FM051700 04018KT P6SM BKN040=

USA.gov is the U.S. government's official web portal to all federal, state and local government web resources and services.